Time;durP1;ratioP1;P1;durP2;ratioP2;P2;SDS_P1;SDS_P2;PMS_P1;PMS_P2;Temp;Humidity;BMP_temperature;BMP_pressure;BME280_temperature;BME280_humidity;BME280_pressure;Samples;Min_cycle;Max_cycle;Signal;HPM_P1;HPM_P2
2023/12/23 00:01:57;;;;;;;9.73;1.70;;;;;;;;;;4963992;28;92124;-66
2023/12/23 00:04:23;;;;;;;11.23;1.40;;;;;;;;;;4974613;28;92287;-66
2023/12/23 00:06:50;;;;;;;18.67;2.65;;;;;;;;;;4970531;28;93770;-66
2023/12/23 00:09:17;;;;;;;25.35;2.63;;;;;;;;;;4968718;28;94865;-65
2023/12/23 00:11:43;;;;;;;20.63;2.53;;;;;;;;;;4975871;28;95604;-66
2023/12/23 00:14:10;;;;;;;20.58;2.70;;;;;;;;;;4970694;28;94119;-66
2023/12/23 00:16:37;;;;;;;15.75;2.13;;;;;;;;;;4972446;28;93324;-66
2023/12/23 00:19:04;;;;;;;10.90;2.15;;;;;;;;;;4970409;28;93228;-66
2023/12/23 00:21:30;;;;;;;15.50;2.13;;;;;;;;;;4973051;28;93474;-67
2023/12/23 00:23:57;;;;;;;15.85;2.40;;;;;;;;;;4973250;28;94266;-66
2023/12/23 00:26:23;;;;;;;15.20;2.15;;;;;;;;;;4971834;28;92917;-66
2023/12/23 00:28:49;;;;;;;17.55;2.50;;;;;;;;;;4973567;28;92515;-66
2023/12/23 00:31:16;;;;;;;18.52;1.92;;;;;;;;;;4966764;28;92381;-66
2023/12/23 00:33:44;;;;;;;16.40;2.10;;;;;;;;;;4968280;28;96833;-66
2023/12/23 00:36:10;;;;;;;22.05;2.90;;;;;;;;;;4966701;28;95665;-66
2023/12/23 00:38:37;;;;;;;22.67;3.15;;;;;;;;;;4970321;28;92399;-66
2023/12/23 00:41:03;;;;;;;12.77;2.08;;;;;;;;;;4972679;28;93827;-66
2023/12/23 00:43:29;;;;;;;18.35;2.55;;;;;;;;;;4970634;28;93365;-65
2023/12/23 00:45:56;;;;;;;14.57;2.00;;;;;;;;;;4966255;28;93884;-66
2023/12/23 00:48:22;;;;;;;15.27;2.75;;;;;;;;;;4971749;28;92553;-66
2023/12/23 00:50:49;;;;;;;16.25;2.63;;;;;;;;;;4974028;28;94147;-67
2023/12/23 00:53:15;;;;;;;14.23;1.85;;;;;;;;;;4973167;28;93364;-66
2023/12/23 00:55:41;;;;;;;19.77;2.05;;;;;;;;;;4972125;28;92371;-66
2023/12/23 00:58:08;;;;;;;16.90;1.85;;;;;;;;;;4966838;28;95827;-66
2023/12/23 01:00:34;;;;;;;15.13;2.17;;;;;;;;;;4967415;28;92473;-66
2023/12/23 01:03:01;;;;;;;24.55;2.20;;;;;;;;;;4966138;28;94178;-66
2023/12/23 01:05:27;;;;;;;17.38;2.35;;;;;;;;;;4967827;28;93850;-65
2023/12/23 01:07:53;;;;;;;18.90;2.25;;;;;;;;;;4968870;28;92735;-66
2023/12/23 01:10:24;;;;;;;17.58;2.33;;;;;;;;;;4973757;28;93215;-66
2023/12/23 01:12:50;;;;;;;12.02;1.90;;;;;;;;;;4967794;28;94955;-66
2023/12/23 01:15:17;;;;;;;12.45;1.83;;;;;;;;;;4970876;28;91739;-66
2023/12/23 01:17:43;;;;;;;16.38;1.90;;;;;;;;;;4966207;28;93474;-66
2023/12/23 01:20:09;;;;;;;14.63;2.08;;;;;;;;;;4966506;28;92491;-66
2023/12/23 01:22:36;;;;;;;21.02;2.42;;;;;;;;;;4971553;28;94922;-66
2023/12/23 01:25:02;;;;;;;20.85;1.85;;;;;;;;;;4972957;28;93597;-66
2023/12/23 01:27:29;;;;;;;13.85;2.15;;;;;;;;;;4972840;28;92606;-66
2023/12/23 01:29:55;;;;;;;9.38;1.60;;;;;;;;;;4973683;28;93603;-66
2023/12/23 01:32:22;;;;;;;25.00;2.92;;;;;;;;;;4969559;28;93626;-66
2023/12/23 01:34:48;;;;;;;13.73;2.00;;;;;;;;;;4969393;28;92496;-66
2023/12/23 01:37:14;;;;;;;12.48;1.70;;;;;;;;;;4971206;28;93875;-67
2023/12/23 01:39:41;;;;;;;14.45;2.25;;;;;;;;;;4971697;28;92000;-66
2023/12/23 01:42:07;;;;;;;15.23;2.10;;;;;;;;;;4969560;28;92486;-66
2023/12/23 01:44:33;;;;;;;13.60;1.90;;;;;;;;;;4969088;28;93407;-66
2023/12/23 01:47:01;;;;;;;12.48;2.10;;;;;;;;;;4971322;28;94940;-65
2023/12/23 01:49:28;;;;;;;16.45;2.33;;;;;;;;;;4965661;28;96959;-66
2023/12/23 01:51:55;;;;;;;13.52;2.20;;;;;;;;;;4966859;28;92781;-66
2023/12/23 01:54:22;;;;;;;13.82;1.92;;;;;;;;;;4970931;28;92427;-66
2023/12/23 01:56:49;;;;;;;13.15;1.95;;;;;;;;;;4967042;28;93085;-66
2023/12/23 01:59:18;;;;;;;11.02;1.50;;;;;;;;;;4976217;28;93500;-65
2023/12/23 02:01:45;;;;;;;15.10;2.80;;;;;;;;;;4964860;28;92970;-66
2023/12/23 02:04:12;;;;;;;11.25;1.80;;;;;;;;;;4964674;28;92751;-66
2023/12/23 02:06:38;;;;;;;11.48;1.70;;;;;;;;;;4970515;28;92413;-66
2023/12/23 02:09:04;;;;;;;20.77;1.67;;;;;;;;;;4966250;28;93176;-66
2023/12/23 02:11:31;;;;;;;13.00;2.10;;;;;;;;;;4966322;28;95935;-66
2023/12/23 02:14:20;;;;;;;12.85;1.88;;;;;;;;;;4971027;28;92795;-66
2023/12/23 02:16:47;;;;;;;12.15;2.00;;;;;;;;;;4962916;28;95662;-66
2023/12/23 02:19:14;;;;;;;8.85;2.03;;;;;;;;;;4983670;28;93430;-66
2023/12/23 02:21:40;;;;;;;13.25;2.03;;;;;;;;;;4975375;28;92534;-66
2023/12/23 02:24:06;;;;;;;15.48;1.67;;;;;;;;;;4968996;28;94455;-66
2023/12/23 02:26:33;;;;;;;11.68;1.70;;;;;;;;;;4972580;28;92470;-66
2023/12/23 02:29:01;;;;;;;10.05;1.48;;;;;;;;;;4969095;28;93149;-66
2023/12/23 02:31:28;;;;;;;10.27;1.77;;;;;;;;;;4970944;28;94177;-66
2023/12/23 02:33:54;;;;;;;12.02;1.65;;;;;;;;;;4965939;28;92500;-66
2023/12/23 02:36:21;;;;;;;13.10;2.22;;;;;;;;;;4970356;28;95079;-66
2023/12/23 02:38:48;;;;;;;8.07;1.95;;;;;;;;;;4967869;28;93450;-66
2023/12/23 02:41:14;;;;;;;4.63;0.95;;;;;;;;;;4967667;28;92709;-66
2023/12/23 02:43:41;;;;;;;6.70;1.20;;;;;;;;;;4975077;28;93152;-65
2023/12/23 02:46:07;;;;;;;7.20;1.23;;;;;;;;;;4964455;28;93600;-65
2023/12/23 02:48:33;;;;;;;8.75;1.27;;;;;;;;;;4970696;28;93085;-66
2023/12/23 02:51:00;;;;;;;6.28;1.20;;;;;;;;;;4968266;28;93343;-65
2023/12/23 02:53:26;;;;;;;5.90;1.63;;;;;;;;;;4971527;28;91824;-66
2023/12/23 02:55:53;;;;;;;6.85;1.52;;;;;;;;;;4972375;28;92815;-66
2023/12/23 02:58:19;;;;;;;6.55;1.75;;;;;;;;;;4971164;28;93453;-66
2023/12/23 03:00:45;;;;;;;8.30;2.28;;;;;;;;;;4968585;28;95271;-66
2023/12/23 03:03:12;;;;;;;6.60;1.67;;;;;;;;;;4974453;28;97182;-66
2023/12/23 03:05:38;;;;;;;7.25;2.38;;;;;;;;;;4971981;28;92756;-66
2023/12/23 03:08:05;;;;;;;14.52;2.80;;;;;;;;;;4968440;28;93310;-65
2023/12/23 03:10:32;;;;;;;8.10;2.45;;;;;;;;;;4968156;28;94467;-66
2023/12/23 03:12:58;;;;;;;17.20;2.40;;;;;;;;;;4971717;28;92938;-66
2023/12/23 03:15:24;;;;;;;10.73;2.30;;;;;;;;;;4987031;28;93795;-66
2023/12/23 03:17:52;;;;;;;11.70;2.17;;;;;;;;;;4967444;28;92975;-66
2023/12/23 03:20:19;;;;;;;17.40;2.42;;;;;;;;;;4968582;28;92513;-66
2023/12/23 03:22:45;;;;;;;19.85;2.80;;;;;;;;;;4970967;28;92970;-66
2023/12/23 03:25:12;;;;;;;12.40;2.28;;;;;;;;;;4971701;28;96146;-65
2023/12/23 03:27:39;;;;;;;21.10;2.03;;;;;;;;;;4964118;28;95474;-66
2023/12/23 03:30:05;;;;;;;18.70;3.58;;;;;;;;;;4970378;28;93381;-66
2023/12/23 03:32:32;;;;;;;21.65;3.10;;;;;;;;;;4967943;28;92556;-63
2023/12/23 03:34:58;;;;;;;18.27;3.05;;;;;;;;;;4971668;28;92519;-63
2023/12/23 03:37:24;;;;;;;17.90;2.90;;;;;;;;;;4965673;28;94487;-63
2023/12/23 03:39:51;;;;;;;18.15;2.47;;;;;;;;;;4972475;28;92433;-63
2023/12/23 03:42:17;;;;;;;14.85;2.28;;;;;;;;;;4969530;28;94501;-63
2023/12/23 03:44:44;;;;;;;12.73;2.67;;;;;;;;;;4967618;28;93250;-64
2023/12/23 03:47:10;;;;;;;17.95;2.40;;;;;;;;;;4977187;28;92424;-63
2023/12/23 03:49:37;;;;;;;14.98;2.85;;;;;;;;;;4969976;28;95846;-63
2023/12/23 03:52:03;;;;;;;17.65;2.75;;;;;;;;;;4975268;28;92559;-63
2023/12/23 03:54:29;;;;;;;18.05;2.70;;;;;;;;;;4971741;28;94324;-63
2023/12/23 03:56:56;;;;;;;19.00;3.05;;;;;;;;;;4966380;28;93340;-63
2023/12/23 03:59:22;;;;;;;19.98;2.70;;;;;;;;;;4989221;28;92502;-64
2023/12/23 04:01:49;;;;;;;15.05;2.53;;;;;;;;;;4974732;28;93061;-64
2023/12/23 04:04:15;;;;;;;11.25;2.10;;;;;;;;;;4973781;28;93927;-63
2023/12/23 04:06:41;;;;;;;10.85;2.58;;;;;;;;;;4974926;28;91744;-64
2023/12/23 04:09:10;;;;;;;20.27;2.75;;;;;;;;;;4973640;28;92524;-64
2023/12/23 04:11:36;;;;;;;16.17;2.47;;;;;;;;;;4974242;28;92510;-63
2023/12/23 04:14:02;;;;;;;13.07;2.42;;;;;;;;;;4972940;28;94968;-63
2023/12/23 04:16:29;;;;;;;26.40;3.28;;;;;;;;;;4972479;28;93963;-63
2023/12/23 04:18:55;;;;;;;12.10;1.95;;;;;;;;;;4972358;28;92454;-63
2023/12/23 04:21:21;;;;;;;17.17;2.53;;;;;;;;;;4974127;28;93131;-63
2023/12/23 04:23:48;;;;;;;13.35;2.75;;;;;;;;;;4970805;28;92514;-63
2023/12/23 04:26:14;;;;;;;13.05;2.42;;;;;;;;;;4974142;28;92529;-63
2023/12/23 04:28:41;;;;;;;16.55;2.42;;;;;;;;;;4971202;28;93107;-63
2023/12/23 04:31:07;;;;;;;11.93;2.03;;;;;;;;;;4977459;28;92942;-63
2023/12/23 04:33:34;;;;;;;16.73;2.10;;;;;;;;;;4971130;28;93683;-63
2023/12/23 04:36:01;;;;;;;12.50;1.83;;;;;;;;;;4973715;28;93480;-64
2023/12/23 04:38:27;;;;;;;10.43;2.50;;;;;;;;;;4968226;28;94950;-63
2023/12/23 04:40:54;;;;;;;19.23;2.45;;;;;;;;;;4974536;28;96557;-65
2023/12/23 04:43:20;;;;;;;14.93;2.95;;;;;;;;;;4969709;28;93614;-66
2023/12/23 04:45:46;;;;;;;12.23;2.00;;;;;;;;;;4970028;28;92762;-66
2023/12/23 04:48:13;;;;;;;12.52;2.10;;;;;;;;;;4968359;28;93077;-66
2023/12/23 04:50:40;;;;;;;12.88;2.15;;;;;;;;;;4969212;28;93474;-66
2023/12/23 04:53:06;;;;;;;14.27;2.28;;;;;;;;;;4972772;28;92458;-66
2023/12/23 04:55:32;;;;;;;14.60;2.67;;;;;;;;;;4973703;28;92693;-66
2023/12/23 04:57:59;;;;;;;12.25;2.25;;;;;;;;;;4971549;28;92533;-66
2023/12/23 05:00:25;;;;;;;15.18;2.33;;;;;;;;;;4973612;28;92430;-66
2023/12/23 05:02:51;;;;;;;18.73;2.50;;;;;;;;;;4969315;28;95820;-66
2023/12/23 05:05:18;;;;;;;14.07;2.80;;;;;;;;;;4972225;28;92894;-66
2023/12/23 05:07:46;;;;;;;15.35;2.05;;;;;;;;;;4973576;28;93129;-66
2023/12/23 05:10:13;;;;;;;16.88;2.53;;;;;;;;;;4973562;28;93321;-66
2023/12/23 05:12:39;;;;;;;18.48;2.65;;;;;;;;;;4973570;28;92557;-66
2023/12/23 05:15:05;;;;;;;18.77;2.53;;;;;;;;;;4973612;28;94538;-66
2023/12/23 05:17:32;;;;;;;9.52;2.35;;;;;;;;;;4968342;28;92762;-66
2023/12/23 05:19:58;;;;;;;22.00;2.50;;;;;;;;;;4966686;28;93114;-66
2023/12/23 05:22:25;;;;;;;18.70;2.47;;;;;;;;;;4968642;28;93464;-66
2023/12/23 05:24:51;;;;;;;27.67;3.38;;;;;;;;;;4973483;28;92548;-66
2023/12/23 05:27:17;;;;;;;14.23;2.35;;;;;;;;;;4968024;28;95563;-66
2023/12/23 05:29:44;;;;;;;15.40;2.50;;;;;;;;;;4968424;28;93440;-66
2023/12/23 05:32:10;;;;;;;16.02;2.45;;;;;;;;;;4968398;28;92458;-66
2023/12/23 05:34:37;;;;;;;13.77;2.40;;;;;;;;;;4976589;28;93512;-65
2023/12/23 05:37:03;;;;;;;17.38;2.63;;;;;;;;;;4970827;28;93365;-66
2023/12/23 05:39:30;;;;;;;16.95;2.40;;;;;;;;;;4968811;28;93195;-66
2023/12/23 05:41:56;;;;;;;14.98;2.28;;;;;;;;;;4970614;28;93405;-66
2023/12/23 05:44:22;;;;;;;13.63;2.40;;;;;;;;;;4973544;28;91764;-66
2023/12/23 05:46:49;;;;;;;17.92;2.53;;;;;;;;;;4967439;28;92965;-66
2023/12/23 05:49:15;;;;;;;10.80;2.28;;;;;;;;;;4972584;28;93520;-66
2023/12/23 05:51:42;;;;;;;16.08;2.72;;;;;;;;;;4967924;28;94809;-65
2023/12/23 05:54:08;;;;;;;13.07;2.72;;;;;;;;;;4971761;28;95836;-66
2023/12/23 05:56:34;;;;;;;9.45;1.70;;;;;;;;;;4974455;28;93632;-65
2023/12/23 05:59:01;;;;;;;13.15;1.90;;;;;;;;;;4968255;28;93137;-66
2023/12/23 06:01:27;;;;;;;13.75;2.42;;;;;;;;;;4968180;28;93347;-66
2023/12/23 06:03:54;;;;;;;12.93;2.00;;;;;;;;;;4972726;28;92490;-66
2023/12/23 06:06:20;;;;;;;17.98;2.47;;;;;;;;;;4970713;28;93907;-66
2023/12/23 06:08:47;;;;;;;14.38;1.80;;;;;;;;;;4986911;28;92669;-66
2023/12/23 06:11:15;;;;;;;18.45;2.80;;;;;;;;;;4969033;28;92734;-66
2023/12/23 06:13:41;;;;;;;14.93;2.42;;;;;;;;;;4972352;28;93198;-66
2023/12/23 06:16:08;;;;;;;12.70;2.47;;;;;;;;;;4969141;28;96851;-66
2023/12/23 06:18:34;;;;;;;22.05;3.03;;;;;;;;;;4970815;28;92585;-66
2023/12/23 06:21:01;;;;;;;15.10;2.42;;;;;;;;;;4970053;28;94509;-66
2023/12/23 06:23:27;;;;;;;14.10;2.58;;;;;;;;;;4970875;28;92481;-66
2023/12/23 06:25:54;;;;;;;16.20;2.95;;;;;;;;;;4972381;28;93581;-66
2023/12/23 06:28:20;;;;;;;15.82;3.33;;;;;;;;;;4972160;28;93735;-66
2023/12/23 06:30:47;;;;;;;15.38;2.42;;;;;;;;;;4968572;28;92485;-66
2023/12/23 06:33:13;;;;;;;24.17;2.58;;;;;;;;;;4969985;28;94275;-66
2023/12/23 06:35:40;;;;;;;18.48;2.92;;;;;;;;;;4968801;28;94526;-66
2023/12/23 06:38:06;;;;;;;18.92;3.00;;;;;;;;;;4970819;28;92541;-66
2023/12/23 06:40:33;;;;;;;16.60;2.35;;;;;;;;;;4972743;28;95850;-66
2023/12/23 06:43:00;;;;;;;19.67;2.67;;;;;;;;;;4972051;28;92484;-66
2023/12/23 06:45:46;;;;;;;18.50;2.72;;;;;;;;;;4967675;28;93224;-65
2023/12/23 06:48:13;;;;;;;14.20;2.63;;;;;;;;;;4967447;28;93407;-65
2023/12/23 06:50:39;;;;;;;27.25;3.28;;;;;;;;;;4970371;28;92539;-65
2023/12/23 06:53:08;;;;;;;19.25;3.03;;;;;;;;;;4969788;28;93875;-65
2023/12/23 06:55:34;;;;;;;13.63;2.70;;;;;;;;;;4967282;28;93807;-66
2023/12/23 06:58:01;;;;;;;15.32;2.85;;;;;;;;;;4962897;28;91755;-66
2023/12/23 07:00:27;;;;;;;16.35;2.60;;;;;;;;;;4966039;28;92539;-66
2023/12/23 07:02:54;;;;;;;21.38;3.63;;;;;;;;;;4970743;28;94826;-63
2023/12/23 07:05:20;;;;;;;23.58;2.80;;;;;;;;;;4962890;28;95049;-63
2023/12/23 07:07:47;;;;;;;19.48;2.67;;;;;;;;;;4969811;28;94876;-63
2023/12/23 07:10:14;;;;;;;17.58;2.67;;;;;;;;;;4971363;28;92674;-63
2023/12/23 07:12:40;;;;;;;12.50;2.65;;;;;;;;;;4973010;28;93236;-64
2023/12/23 07:15:07;;;;;;;18.70;3.13;;;;;;;;;;4970514;28;92538;-63
2023/12/23 07:17:34;;;;;;;15.13;2.33;;;;;;;;;;4964937;28;92771;-64
2023/12/23 07:20:08;;;;;;;24.77;3.40;;;;;;;;;;4962949;28;92889;-63
2023/12/23 07:22:34;;;;;;;19.58;2.60;;;;;;;;;;4972779;28;92785;-64
2023/12/23 07:25:01;;;;;;;15.82;2.90;;;;;;;;;;4966583;28;92693;-63
2023/12/23 07:27:27;;;;;;;22.63;4.10;;;;;;;;;;4967800;28;93698;-64
2023/12/23 07:29:54;;;;;;;16.52;2.60;;;;;;;;;;4970436;28;95043;-64
2023/12/23 07:32:20;;;;;;;24.65;2.97;;;;;;;;;;4972129;28;95837;-64
2023/12/23 07:34:46;;;;;;;16.95;2.35;;;;;;;;;;4964452;28;95554;-64
2023/12/23 07:37:13;;;;;;;14.80;2.28;;;;;;;;;;4971194;28;92531;-67
2023/12/23 07:39:40;;;;;;;11.95;1.95;;;;;;;;;;4971142;28;93159;-64
2023/12/23 07:42:06;;;;;;;20.60;2.72;;;;;;;;;;4974927;28;93780;-64
2023/12/23 07:44:36;;;;;;;15.50;3.33;;;;;;;;;;4969112;28;93009;-64
2023/12/23 07:47:06;;;;;;;13.48;2.78;;;;;;;;;;4968218;28;92663;-64
2023/12/23 07:49:32;;;;;;;22.63;3.03;;;;;;;;;;4966500;28;92525;-64
2023/12/23 07:52:02;;;;;;;12.05;1.70;;;;;;;;;;4974045;28;93111;-65
2023/12/23 07:54:28;;;;;;;17.30;2.60;;;;;;;;;;4962981;28;95818;-64
2023/12/23 07:56:54;;;;;;;14.77;2.05;;;;;;;;;;4965888;28;92542;-64
2023/12/23 07:59:21;;;;;;;20.65;3.13;;;;;;;;;;4971908;28;95578;-65
2023/12/23 08:01:47;;;;;;;17.17;2.65;;;;;;;;;;4974976;28;93534;-65
2023/12/23 08:04:14;;;;;;;25.15;5.90;;;;;;;;;;4971553;28;92616;-64
2023/12/23 08:06:41;;;;;;;16.33;2.65;;;;;;;;;;4976989;28;94810;-63
2023/12/23 08:09:08;;;;;;;14.70;2.80;;;;;;;;;;4972070;28;92507;-64
2023/12/23 08:11:35;;;;;;;16.02;1.75;;;;;;;;;;4965490;28;93191;-64
2023/12/23 08:14:02;;;;;;;12.70;2.25;;;;;;;;;;4964734;28;93592;-66
2023/12/23 08:16:29;;;;;;;13.30;2.10;;;;;;;;;;4970360;28;92601;-66
2023/12/23 08:18:55;;;;;;;17.20;2.47;;;;;;;;;;4969171;28;94936;-66
2023/12/23 08:21:21;;;;;;;15.55;2.88;;;;;;;;;;4966906;28;93752;-66
2023/12/23 08:23:48;;;;;;;13.18;2.88;;;;;;;;;;4967376;28;92472;-67
2023/12/23 08:26:14;;;;;;;17.92;3.35;;;;;;;;;;4974268;28;93504;-66
2023/12/23 08:28:41;;;;;;;18.02;2.60;;;;;;;;;;4970700;28;93395;-67
2023/12/23 08:31:11;;;;;;;13.10;2.40;;;;;;;;;;4964804;28;93535;-67
2023/12/23 08:33:37;;;;;;;14.15;2.42;;;;;;;;;;4971772;28;93426;-66
2023/12/23 08:36:04;;;;;;;17.17;2.90;;;;;;;;;;4975328;28;91668;-66
2023/12/23 08:38:30;;;;;;;12.30;2.22;;;;;;;;;;4970628;28;93445;-67
2023/12/23 08:40:57;;;;;;;14.75;3.10;;;;;;;;;;4965439;28;93607;-66
2023/12/23 08:43:23;;;;;;;12.15;2.03;;;;;;;;;;4969320;28;94836;-67
2023/12/23 08:45:49;;;;;;;17.08;2.95;;;;;;;;;;4974093;28;95503;-67
2023/12/23 08:48:16;;;;;;;11.55;2.17;;;;;;;;;;4965725;28;94332;-66
2023/12/23 08:50:42;;;;;;;14.95;2.22;;;;;;;;;;4975746;28;92649;-66
2023/12/23 08:53:09;;;;;;;8.93;2.00;;;;;;;;;;4972687;28;93441;-66
2023/12/23 08:55:35;;;;;;;9.60;1.90;;;;;;;;;;4970018;28;92574;-66
2023/12/23 08:58:02;;;;;;;13.60;2.25;;;;;;;;;;4969486;28;94137;-67
2023/12/23 09:00:28;;;;;;;11.73;2.20;;;;;;;;;;4981941;28;93060;-66
2023/12/23 09:02:55;;;;;;;19.15;2.58;;;;;;;;;;4973772;28;92790;-67
2023/12/23 09:05:21;;;;;;;9.50;2.30;;;;;;;;;;4973723;28;93809;-66
2023/12/23 09:07:47;;;;;;;11.82;2.10;;;;;;;;;;4963718;28;95889;-66
2023/12/23 09:10:14;;;;;;;12.27;2.05;;;;;;;;;;4970153;28;92512;-66
2023/12/23 09:12:41;;;;;;;4.78;1.50;;;;;;;;;;4975365;28;93224;-67
2023/12/23 09:15:07;;;;;;;11.70;2.20;;;;;;;;;;4967835;28;92529;-66
2023/12/23 09:17:34;;;;;;;7.20;1.58;;;;;;;;;;4970431;28;94793;-66
2023/12/23 09:20:01;;;;;;;12.57;2.42;;;;;;;;;;4968150;28;95517;-66
2023/12/23 09:22:27;;;;;;;12.40;1.90;;;;;;;;;;4972443;28;92706;-65
2023/12/23 09:24:53;;;;;;;10.20;2.08;;;;;;;;;;4966716;28;93183;-64
2023/12/23 09:27:20;;;;;;;11.57;1.77;;;;;;;;;;4973332;28;94424;-64
2023/12/23 09:29:46;;;;;;;12.07;2.30;;;;;;;;;;4962618;28;92506;-65
2023/12/23 09:32:13;;;;;;;14.55;2.53;;;;;;;;;;4969000;28;94939;-65
2023/12/23 09:34:39;;;;;;;13.60;2.08;;;;;;;;;;4972019;28;92415;-64
2023/12/23 09:37:05;;;;;;;16.27;2.70;;;;;;;;;;4984924;28;93108;-65
2023/12/23 09:39:33;;;;;;;16.60;2.55;;;;;;;;;;4969188;28;92835;-65
2023/12/23 09:41:59;;;;;;;15.27;2.85;;;;;;;;;;4972250;28;92845;-66
2023/12/23 09:44:25;;;;;;;13.82;2.28;;;;;;;;;;4971591;28;92570;-64
2023/12/23 09:46:52;;;;;;;8.45;2.13;;;;;;;;;;4965594;28;93614;-64
2023/12/23 09:49:19;;;;;;;14.45;2.78;;;;;;;;;;4973476;28;91807;-65
2023/12/23 09:51:46;;;;;;;18.65;2.40;;;;;;;;;;4968788;28;92525;-68
2023/12/23 09:54:19;;;;;;;20.08;3.35;;;;;;;;;;4976060;28;93427;-67
2023/12/23 09:56:49;;;;;;;18.13;3.10;;;;;;;;;;4971231;28;94938;-69
2023/12/23 09:59:16;;;;;;;13.05;2.42;;;;;;;;;;4972872;28;93377;-67
2023/12/23 10:01:42;;;;;;;14.02;2.20;;;;;;;;;;4969640;28;92402;-68
2023/12/23 10:04:09;;;;;;;14.43;2.40;;;;;;;;;;4971471;28;93490;-69
2023/12/23 10:06:35;;;;;;;15.75;2.35;;;;;;;;;;4962322;28;93476;-67
2023/12/23 10:09:03;;;;;;;18.35;2.70;;;;;;;;;;4968944;28;92458;-65
2023/12/23 10:11:29;;;;;;;7.78;1.65;;;;;;;;;;4965632;28;94318;-65
2023/12/23 10:13:56;;;;;;;14.25;2.67;;;;;;;;;;4971916;28;93030;-64
2023/12/23 10:16:22;;;;;;;19.42;3.15;;;;;;;;;;4972896;28;92629;-66
2023/12/23 10:18:49;;;;;;;14.82;2.70;;;;;;;;;;4970470;28;92566;-67
2023/12/23 10:21:15;;;;;;;22.02;2.45;;;;;;;;;;4969585;28;94984;-64
2023/12/23 10:23:42;;;;;;;16.10;2.58;;;;;;;;;;4970618;28;96388;-63
2023/12/23 10:26:08;;;;;;;14.48;2.38;;;;;;;;;;4963956;28;93448;-64
2023/12/23 10:28:35;;;;;;;22.63;2.40;;;;;;;;;;4968885;28;92505;-64
2023/12/23 10:31:02;;;;;;;13.30;2.10;;;;;;;;;;4970712;28;93238;-64
2023/12/23 10:33:33;;;;;;;21.30;2.83;;;;;;;;;;4965263;28;93422;-63
2023/12/23 10:35:59;;;;;;;14.25;2.22;;;;;;;;;;4965655;28;92385;-64
2023/12/23 10:38:27;;;;;;;11.10;1.70;;;;;;;;;;4975597;28;93162;-64
2023/12/23 10:40:55;;;;;;;15.90;2.72;;;;;;;;;;4965965;28;92735;-64
2023/12/23 10:43:22;;;;;;;10.55;2.42;;;;;;;;;;4983546;28;93207;-64
2023/12/23 10:45:49;;;;;;;14.82;1.60;;;;;;;;;;4965963;28;97285;-65
2023/12/23 10:48:16;;;;;;;14.07;2.22;;;;;;;;;;4981187;28;92806;-64
2023/12/23 10:50:46;;;;;;;13.57;1.92;;;;;;;;;;4971020;28;93083;-64
2023/12/23 10:53:16;;;;;;;15.13;2.40;;;;;;;;;;4972540;28;93443;-63
2023/12/23 10:55:46;;;;;;;12.97;2.30;;;;;;;;;;4973383;28;92557;-63
2023/12/23 10:58:13;;;;;;;18.08;1.67;;;;;;;;;;4986271;28;93222;-65
2023/12/23 11:00:41;;;;;;;13.90;1.70;;;;;;;;;;4974169;28;94168;-64
2023/12/23 11:03:08;;;;;;;12.10;1.85;;;;;;;;;;4971060;28;92952;-63
2023/12/23 11:05:36;;;;;;;13.55;2.22;;;;;;;;;;4970944;28;94625;-64
2023/12/23 11:08:05;;;;;;;14.77;2.30;;;;;;;;;;4970789;28;92658;-63
2023/12/23 11:10:42;;;;;;;9.15;2.13;;;;;;;;;;4970564;28;94793;-63
2023/12/23 11:13:09;;;;;;;12.10;2.72;;;;;;;;;;4972545;28;94360;-63
2023/12/23 11:15:39;;;;;;;6.75;1.75;;;;;;;;;;4975118;28;92594;-63
2023/12/23 11:18:05;;;;;;;13.05;2.22;;;;;;;;;;4972176;28;93121;-63
2023/12/23 11:20:37;;;;;;;7.70;1.80;;;;;;;;;;4970153;28;94046;-63
2023/12/23 11:23:23;;;;;;;17.33;2.95;;;;;;;;;;4973870;28;92791;-63
2023/12/23 11:25:50;;;;;;;14.20;2.10;;;;;;;;;;4971573;28;93474;-62
2023/12/23 11:28:17;;;;;;;8.57;1.95;;;;;;;;;;4973417;28;91806;-62
2023/12/23 11:30:47;;;;;;;12.13;1.73;;;;;;;;;;4971190;28;92636;-63
2023/12/23 11:33:14;;;;;;;11.48;2.00;;;;;;;;;;4969546;28;93605;-63
2023/12/23 11:35:51;;;;;;;9.23;1.83;;;;;;;;;;4972805;28;94876;-63
2023/12/23 11:38:17;;;;;;;14.07;1.60;;;;;;;;;;4969558;28;95501;-63
2023/12/23 11:40:44;;;;;;;13.85;2.08;;;;;;;;;;4971912;28;93892;-63
2023/12/23 11:43:10;;;;;;;14.13;1.50;;;;;;;;;;4973823;28;92365;-63
2023/12/23 11:45:37;;;;;;;8.52;1.42;;;;;;;;;;4986432;28;93432;-64
2023/12/23 11:48:07;;;;;;;9.15;2.13;;;;;;;;;;4968094;28;92539;-62
2023/12/23 11:50:33;;;;;;;7.85;1.58;;;;;;;;;;4973599;28;93449;-63
2023/12/23 11:53:00;;;;;;;7.45;1.60;;;;;;;;;;4965703;28;93253;-63
2023/12/23 11:55:26;;;;;;;12.57;1.98;;;;;;;;;;4970562;28;92705;-64
2023/12/23 11:57:53;;;;;;;9.15;2.08;;;;;;;;;;4974237;28;93172;-63
2023/12/23 12:00:19;;;;;;;12.68;1.63;;;;;;;;;;4966916;28;96792;-63
2023/12/23 12:02:46;;;;;;;19.40;2.70;;;;;;;;;;4968232;28;92510;-63
2023/12/23 12:05:13;;;;;;;10.68;1.95;;;;;;;;;;4968262;28;93359;-63
2023/12/23 12:07:39;;;;;;;11.00;1.70;;;;;;;;;;4972663;28;92673;-64
2023/12/23 12:10:06;;;;;;;6.20;1.55;;;;;;;;;;4969820;28;93538;-63
2023/12/23 12:12:32;;;;;;;11.57;1.70;;;;;;;;;;4970793;28;92744;-63
2023/12/23 12:14:59;;;;;;;19.00;2.40;;;;;;;;;;4971986;28;92489;-63
2023/12/23 12:17:25;;;;;;;7.70;2.13;;;;;;;;;;4970475;28;93230;-65
2023/12/23 12:19:53;;;;;;;6.68;1.20;;;;;;;;;;4969560;28;93602;-63
2023/12/23 12:22:21;;;;;;;14.05;2.30;;;;;;;;;;4971717;28;92400;-63
2023/12/23 12:24:47;;;;;;;8.63;1.80;;;;;;;;;;4963755;28;94963;-63
2023/12/23 12:27:14;;;;;;;8.43;1.67;;;;;;;;;;4972952;28;93397;-64
2023/12/23 12:29:40;;;;;;;7.47;1.45;;;;;;;;;;4969670;28;93071;-62
2023/12/23 12:32:10;;;;;;;15.23;1.85;;;;;;;;;;4972374;28;94887;-62
2023/12/23 12:34:36;;;;;;;12.00;1.75;;;;;;;;;;4969651;28;92717;-63
2023/12/23 12:37:03;;;;;;;15.32;1.42;;;;;;;;;;4974016;28;94769;-64
2023/12/23 12:39:29;;;;;;;12.43;1.40;;;;;;;;;;4973740;28;93480;-63
2023/12/23 12:41:56;;;;;;;11.48;4.00;;;;;;;;;;4985885;28;91883;-63
2023/12/23 12:44:23;;;;;;;14.93;5.07;;;;;;;;;;4969712;28;92530;-63
2023/12/23 12:46:54;;;;;;;15.23;4.80;;;;;;;;;;4971929;28;93831;-63
2023/12/23 12:49:23;;;;;;;20.95;8.35;;;;;;;;;;4971056;28;95014;-63
2023/12/23 12:51:50;;;;;;;16.77;4.30;;;;;;;;;;4989322;28;93614;-63
2023/12/23 12:54:18;;;;;;;11.90;1.73;;;;;;;;;;4969793;28;92484;-62
2023/12/23 12:56:45;;;;;;;9.73;2.22;;;;;;;;;;4970276;28;94141;-63
2023/12/23 12:59:11;;;;;;;6.50;1.20;;;;;;;;;;4967998;28;93817;-63
2023/12/23 13:01:38;;;;;;;9.30;1.98;;;;;;;;;;4967875;28;92536;-63
2023/12/23 13:04:04;;;;;;;6.88;1.35;;;;;;;;;;4970494;28;93057;-62
2023/12/23 13:06:31;;;;;;;7.75;1.80;;;;;;;;;;4970337;28;92640;-63
2023/12/23 13:08:57;;;;;;;9.85;1.67;;;;;;;;;;4973611;28;92519;-62
2023/12/23 13:11:23;;;;;;;20.23;1.90;;;;;;;;;;4974216;28;93599;-63
2023/12/23 13:13:50;;;;;;;10.75;1.73;;;;;;;;;;4969601;28;94985;-62
2023/12/23 13:16:16;;;;;;;9.18;1.73;;;;;;;;;;4965400;28;95389;-62
2023/12/23 13:18:43;;;;;;;11.60;1.08;;;;;;;;;;4972896;28;93408;-64
2023/12/23 13:21:22;;;;;;;10.95;1.90;;;;;;;;;;4973576;28;92601;-62
2023/12/23 13:23:48;;;;;;;9.00;1.25;;;;;;;;;;4971121;28;93429;-63
2023/12/23 13:26:16;;;;;;;7.05;1.38;;;;;;;;;;4965879;28;93967;-63
2023/12/23 13:28:43;;;;;;;7.32;1.48;;;;;;;;;;4973580;28;92537;-63
2023/12/23 13:31:09;;;;;;;7.07;1.20;;;;;;;;;;4976118;28;97314;-62
2023/12/23 13:33:36;;;;;;;8.35;1.52;;;;;;;;;;4969486;28;92902;-63
2023/12/23 13:36:04;;;;;;;11.15;2.13;;;;;;;;;;4964416;28;93150;-63
2023/12/23 13:38:30;;;;;;;9.32;1.50;;;;;;;;;;4967884;28;96308;-63
2023/12/23 13:40:57;;;;;;;7.80;1.45;;;;;;;;;;4969640;28;92578;-63
2023/12/23 13:43:23;;;;;;;9.50;2.50;;;;;;;;;;4967560;28;94455;-63
2023/12/23 13:45:49;;;;;;;9.00;2.13;;;;;;;;;;4970277;28;93341;-63
2023/12/23 13:48:16;;;;;;;15.60;4.22;;;;;;;;;;4972398;28;93636;-64
2023/12/23 13:50:42;;;;;;;9.80;1.73;;;;;;;;;;4969712;28;93107;-63
2023/12/23 13:53:09;;;;;;;7.50;1.38;;;;;;;;;;4971952;28;93570;-63
2023/12/23 13:55:43;;;;;;;10.15;1.42;;;;;;;;;;4967088;28;93113;-63
2023/12/23 13:58:11;;;;;;;11.43;1.60;;;;;;;;;;4971128;28;93488;-63
2023/12/23 14:00:37;;;;;;;4.30;1.48;;;;;;;;;;4970266;28;93062;-64
2023/12/23 14:03:04;;;;;;;6.90;1.30;;;;;;;;;;4964321;28;94871;-68
2023/12/23 14:05:30;;;;;;;6.47;1.60;;;;;;;;;;4969250;28;93041;-66
2023/12/23 14:07:56;;;;;;;9.88;1.38;;;;;;;;;;4972889;28;92602;-68
2023/12/23 14:10:23;;;;;;;7.97;1.30;;;;;;;;;;4969005;28;93209;-67
2023/12/23 14:12:49;;;;;;;7.45;1.25;;;;;;;;;;4963577;28;96229;-68
2023/12/23 14:15:16;;;;;;;10.70;1.80;;;;;;;;;;4974086;28;94958;-67
2023/12/23 14:17:42;;;;;;;6.35;1.40;;;;;;;;;;4970107;28;92540;-67
2023/12/23 14:20:09;;;;;;;9.50;2.17;;;;;;;;;;4972455;28;91760;-67
2023/12/23 14:22:35;;;;;;;6.60;1.15;;;;;;;;;;4971821;28;93020;-67
2023/12/23 14:25:02;;;;;;;12.57;1.88;;;;;;;;;;4965291;28;93737;-67
2023/12/23 14:27:28;;;;;;;5.93;1.42;;;;;;;;;;4964034;28;95128;-67
2023/12/23 14:29:54;;;;;;;9.77;1.92;;;;;;;;;;4965233;28;95605;-67
2023/12/23 14:32:21;;;;;;;14.25;1.75;;;;;;;;;;4963287;28;93468;-68